Time;durP1;ratioP1;P1;durP2;ratioP2;P2;SDS_P1;SDS_P2;PMS_P1;PMS_P2;Temp;Humidity;BMP_temperature;BMP_pressure;BME280_temperature;BME280_humidity;BME280_pressure;Samples;Min_cycle;Max_cycle;Signal;HPM_P1;HPM_P2
2024/01/18 00:00:25;;;;;;;2.63;1.97;;;8.30;99.90;;;10.02;67.80;94830.22;5073687;28;20320;-62
2024/01/18 00:02:53;;;;;;;2.77;2.00;;;8.40;99.90;;;10.03;67.63;94841.66;5072964;28;20049;-62
2024/01/18 00:05:21;;;;;;;4.50;1.70;;;8.30;99.90;;;10.02;67.87;94840.84;5072966;28;20055;-62
2024/01/18 00:07:49;;;;;;;2.73;1.80;;;8.30;99.90;;;10.04;67.76;94848.59;5073569;28;20392;-62
2024/01/18 00:10:16;;;;;;;3.13;2.00;;;8.30;99.90;;;10.02;67.67;94838.19;5073498;28;20049;-62
2024/01/18 00:12:44;;;;;;;3.23;2.43;;;8.30;99.90;;;10.02;67.52;94838.19;5072809;28;20412;-62
2024/01/18 00:15:11;;;;;;;2.57;2.03;;;8.40;99.90;;;10.04;67.89;94838.78;5073077;28;20500;-62
2024/01/18 00:17:39;;;;;;;2.57;2.03;;;8.30;99.90;;;10.04;67.93;94835.28;5073146;28;20492;-62
2024/01/18 00:20:07;;;;;;;2.10;1.53;;;8.40;99.90;;;10.07;67.66;94844.69;5073190;28;20037;-62
2024/01/18 00:22:35;;;;;;;4.80;4.33;;;8.40;99.90;;;10.05;67.81;94837.72;5072847;28;20527;-62
2024/01/18 00:25:03;;;;;;;3.10;2.80;;;8.40;99.90;;;10.07;67.71;94853.47;5072469;28;20515;-62
2024/01/18 00:27:31;;;;;;;3.03;2.20;;;8.30;99.90;;;10.05;67.66;94837.72;5072628;28;20052;-62
2024/01/18 00:29:59;;;;;;;3.23;2.33;;;8.30;99.90;;;10.07;67.69;94840.16;5073068;28;20476;-62
2024/01/18 00:32:27;;;;;;;5.60;5.03;;;8.30;99.90;;;10.07;67.87;94842.81;5072539;28;20119;-62
2024/01/18 00:34:54;;;;;;;3.63;3.13;;;8.40;99.90;;;10.06;67.48;94835.88;5071370;28;20519;-62
2024/01/18 00:37:23;;;;;;;2.67;2.20;;;8.30;99.90;;;10.03;67.84;94842.47;5072999;28;20041;-62
2024/01/18 00:39:50;;;;;;;2.20;1.63;;;8.40;99.90;;;10.02;67.78;94850.66;5072555;28;20040;-61
2024/01/18 00:42:18;;;;;;;2.60;1.80;;;8.40;99.90;;;10.00;67.70;94850.06;5072462;28;20044;-61
2024/01/18 00:44:46;;;;;;;3.77;1.80;;;8.30;99.90;;;10.00;68.05;94850.06;5072535;28;20048;-62
2024/01/18 00:47:14;;;;;;;2.10;1.60;;;8.30;99.90;;;10.00;67.77;94850.91;5071643;28;20041;-62
2024/01/18 00:49:43;;;;;;;2.63;1.80;;;8.30;99.90;;;10.03;68.18;94855.75;5072420;28;20052;-62
2024/01/18 00:52:11;;;;;;;2.13;1.50;;;8.40;99.90;;;10.04;68.24;94860.03;5072242;28;20067;-62
2024/01/18 00:54:39;;;;;;;2.43;1.70;;;8.40;99.90;;;10.06;67.83;94862.44;5072304;28;20041;-62
2024/01/18 00:57:06;;;;;;;2.63;1.60;;;8.40;99.90;;;10.08;68.26;94864.91;5072476;28;20035;-61
2024/01/18 00:59:34;;;;;;;2.30;1.70;;;8.50;99.90;;;10.10;68.07;94863.66;5070973;28;20036;-61
2024/01/18 01:02:03;;;;;;;2.57;1.50;;;8.50;99.90;;;10.10;67.71;94857.50;5072166;28;20040;-62
2024/01/18 01:04:31;;;;;;;1.73;1.50;;;8.40;99.90;;;10.12;68.09;94860.75;5070967;28;20044;-61
2024/01/18 01:06:58;;;;;;;2.00;1.60;;;8.50;99.90;;;10.14;67.87;94862.16;5072242;28;20041;-62
2024/01/18 01:09:26;;;;;;;2.83;1.80;;;8.50;99.90;;;10.16;67.69;94862.75;5070608;28;20534;-61
2024/01/18 01:11:54;;;;;;;2.80;1.60;;;8.50;99.90;;;10.18;67.45;94860.66;5071619;28;20041;-61
2024/01/18 01:14:22;;;;;;;2.77;2.00;;;8.50;99.90;;;10.17;67.72;94860.88;5072037;28;20041;-62
2024/01/18 01:16:49;;;;;;;1.87;1.30;;;8.50;99.90;;;10.16;67.34;94859.28;5070646;28;20055;-61
2024/01/18 01:19:17;;;;;;;1.70;1.30;;;8.40;99.90;;;10.16;67.76;94861.94;5070602;28;20098;-61
2024/01/18 01:21:44;;;;;;;2.30;1.20;;;8.40;99.90;;;10.13;67.50;94865.03;5071751;28;20067;-63
2024/01/18 01:24:12;;;;;;;1.57;1.20;;;8.50;99.90;;;10.13;67.30;94855.22;5071815;28;20048;-63
2024/01/18 01:26:40;;;;;;;2.13;1.30;;;8.40;99.90;;;10.13;67.33;94857.88;5069318;28;20052;-62
2024/01/18 01:29:10;;;;;;;1.87;1.10;;;8.40;99.90;;;10.14;67.39;94866.66;5071697;28;20040;-61
2024/01/18 01:31:38;;;;;;;2.40;1.80;;;8.40;99.90;;;10.15;67.58;94865.63;5071496;28;20048;-62
2024/01/18 01:34:06;;;;;;;1.53;1.07;;;8.40;99.90;;;10.15;67.35;94862.97;5071675;28;20052;-61
2024/01/18 01:36:33;;;;;;;2.03;1.50;;;8.40;99.90;;;10.15;67.31;94862.97;5071533;28;20416;-62
2024/01/18 01:39:03;;;;;;;2.27;1.60;;;8.40;99.90;;;10.19;67.10;94869.44;5069983;28;20515;-61
2024/01/18 01:41:31;;;;;;;17.87;6.47;;;8.50;99.90;;;10.19;66.98;94872.91;5070112;28;20057;-61
2024/01/18 01:44:02;;;;;;;9.40;4.23;;;8.50;99.90;;;10.23;67.21;94870.59;5070049;28;20048;-60
2024/01/18 01:46:30;;;;;;;53.80;15.67;;;8.50;99.90;;;10.19;67.21;94872.91;5070756;28;20550;-61
2024/01/18 01:49:02;;;;;;;8.27;2.80;;;8.40;99.90;;;10.19;67.32;94870.25;5071291;28;20043;-61
2024/01/18 01:51:48;;;;;;;10.97;4.97;;;8.40;99.90;;;10.20;67.31;94866.56;5069863;28;20052;-62
2024/01/18 01:54:19;;;;;;;6.47;3.30;;;8.50;99.90;;;10.23;67.04;94878.59;5070091;28;20551;-62
2024/01/18 01:56:53;;;;;;;119.73;36.63;;;8.40;99.90;;;10.12;67.25;94880.19;5070964;28;20044;-62
2024/01/18 01:59:21;;;;;;;74.03;20.88;;;8.40;99.90;;;10.13;66.93;94878.34;5071439;28;20123;-62
2024/01/18 02:01:49;;;;;;;18.57;6.90;;;8.30;99.90;;;10.14;67.31;94871.97;5070900;28;20041;-62
2024/01/18 02:04:17;;;;;;;52.37;17.63;;;8.30;99.90;;;10.10;67.33;94892.06;5069832;28;20044;-61
2024/01/18 02:06:49;;;;;;;34.63;12.07;;;8.20;99.90;;;10.06;67.20;94902.31;5070975;28;20500;-62
2024/01/18 02:09:18;;;;;;;17.47;9.23;;;8.20;99.90;;;9.95;67.61;94897.78;5071327;28;20048;-62
2024/01/18 02:11:46;;;;;;;18.90;10.60;;;8.10;99.90;;;9.77;67.63;94917.22;5069388;28;20060;-62
2024/01/18 02:14:14;;;;;;;36.57;11.53;;;7.90;99.90;;;9.38;68.10;94900.69;5069607;28;20483;-62
2024/01/18 02:16:42;;;;;;;56.27;15.20;;;7.60;99.90;;;9.32;67.77;94899.72;5069737;28;20514;-62
2024/01/18 02:19:09;;;;;;;20.03;9.60;;;7.40;99.90;;;9.21;67.79;94903.13;5070026;28;20051;-62
2024/01/18 02:21:37;;;;;;;29.37;12.03;;;7.30;99.90;;;9.18;67.54;94912.31;5070737;28;20048;-62
2024/01/18 02:24:19;;;;;;;25.57;11.40;;;7.20;99.90;;;9.09;67.36;94904.84;5069660;28;20037;-62
2024/01/18 02:26:47;;;;;;;17.00;8.60;;;7.00;99.90;;;9.01;67.25;94913.91;5069486;28;20049;-62
2024/01/18 02:29:14;;;;;;;29.93;10.57;;;6.90;99.90;;;8.90;67.17;94925.22;5071429;28;20044;-62
2024/01/18 02:31:42;;;;;;;25.10;11.70;;;6.80;99.90;;;8.64;66.75;94921.75;5069648;28;20044;-61
2024/01/18 02:34:16;;;;;;;9.07;6.80;;;6.50;99.90;;;8.54;66.70;94935.50;5070531;28;20104;-62
2024/01/18 02:36:47;;;;;;;6.82;5.45;;;6.40;99.90;;;8.46;66.24;94931.28;5069421;28;20051;-62
2024/01/18 02:39:14;;;;;;;25.20;8.50;;;6.30;99.90;;;8.31;66.42;94937.88;5069590;28;20036;-61
2024/01/18 02:41:42;;;;;;;9.50;6.00;;;6.10;99.90;;;8.12;66.20;94951.00;5068597;28;20044;-62
2024/01/18 02:44:11;;;;;;;53.63;18.73;;;5.90;99.90;;;7.99;66.53;94943.13;5070298;28;20678;-62
2024/01/18 02:46:39;;;;;;;11.47;6.60;;;5.80;99.90;;;7.76;66.87;94925.09;5069616;28;20048;-62
2024/01/18 02:49:07;;;;;;;8.10;5.70;;;5.70;99.90;;;7.75;66.79;94926.91;5069398;28;20048;-62
2024/01/18 02:51:35;;;;;;;23.60;9.77;;;5.60;99.90;;;7.69;66.63;94935.69;5070234;28;20044;-61
2024/01/18 02:54:02;;;;;;;6.20;4.63;;;5.50;99.90;;;7.43;67.07;94926.03;5070492;28;20047;-62
2024/01/18 02:56:30;;;;;;;7.37;4.37;;;5.40;99.90;;;7.43;67.04;94936.59;5070592;28;20504;-62
2024/01/18 02:58:58;;;;;;;5.30;4.00;;;5.40;99.90;;;7.38;67.45;94941.69;5073763;28;20048;-62
2024/01/18 03:01:26;;;;;;;6.00;4.77;;;5.40;99.90;;;7.37;67.24;94945.38;5074324;28;20503;-62
2024/01/18 03:03:53;;;;;;;6.17;4.63;;;5.40;99.90;;;7.29;67.10;94936.63;5056505;28;20512;-62
2024/01/18 03:06:21;;;;;;;5.20;4.13;;;5.30;99.90;;;7.34;67.04;94922.78;5074625;28;20119;-61
2024/01/18 03:08:49;;;;;;;5.37;4.10;;;5.30;99.90;;;7.34;67.03;94924.63;5074438;28;20044;-61
2024/01/18 03:11:17;;;;;;;7.40;4.43;;;5.30;99.90;;;7.34;66.59;94917.47;5074153;28;20044;-61
2024/01/18 03:13:45;;;;;;;6.80;4.13;;;5.30;99.90;;;7.32;66.60;94929.31;5074036;28;20045;-61
2024/01/18 03:16:15;;;;;;;5.47;4.40;;;5.30;99.90;;;7.17;66.79;94917.09;5073108;28;20040;-61
2024/01/18 03:18:46;;;;;;;6.40;4.83;;;5.10;99.90;;;7.15;66.37;94916.50;5074292;28;20048;-61
2024/01/18 03:21:14;;;;;;;5.13;4.13;;;5.10;99.90;;;7.06;66.78;94915.91;5073180;28;20036;-61
2024/01/18 03:23:42;;;;;;;6.23;4.50;;;5.10;99.90;;;7.07;66.43;94925.47;5074035;28;20060;-61
2024/01/18 03:26:10;;;;;;;5.57;4.00;;;5.00;99.90;;;7.06;66.94;94938.91;5073300;28;20040;-61
2024/01/18 03:28:38;;;;;;;5.17;4.50;;;5.00;99.90;;;6.81;66.98;94920.22;5074886;28;20052;-61
2024/01/18 03:31:08;;;;;;;5.20;4.17;;;4.80;99.90;;;6.89;67.24;94934.03;5065501;28;20048;-61
2024/01/18 03:33:36;;;;;;;5.10;4.07;;;4.90;99.90;;;6.82;67.34;94924.47;5072678;28;20527;-61
2024/01/18 03:36:05;;;;;;;5.13;3.97;;;4.80;99.90;;;6.90;67.02;94932.19;5074091;28;20044;-61
2024/01/18 03:38:33;;;;;;;4.70;3.47;;;5.00;99.90;;;6.79;66.86;94927.53;5073916;28;20084;-61
2024/01/18 03:41:00;;;;;;;4.63;3.57;;;4.80;99.90;;;6.73;67.57;94933.63;5073990;28;20218;-61
2024/01/18 03:43:28;;;;;;;3.97;2.90;;;4.70;99.90;;;6.68;67.41;94928.94;5073642;28;20048;-61
2024/01/18 03:45:56;;;;;;;4.20;3.00;;;4.70;99.90;;;6.67;67.51;94927.34;5073704;28;20397;-61
2024/01/18 03:48:24;;;;;;;4.27;3.00;;;4.70;99.90;;;6.59;67.33;94932.81;5073812;28;20044;-61
2024/01/18 03:50:51;;;;;;;3.70;2.70;;;4.70;99.90;;;6.60;67.45;94942.38;5073658;28;20052;-61
2024/01/18 03:53:19;;;;;;;3.87;2.60;;;4.60;99.90;;;6.52;67.46;94943.38;5072935;28;20048;-61
2024/01/18 03:55:47;;;;;;;4.37;3.50;;;4.60;99.90;;;6.47;66.61;94937.88;5073298;28;20412;-61
2024/01/18 03:58:14;;;;;;;4.97;3.53;;;4.50;99.90;;;6.49;66.77;94934.03;5073592;28;20393;-61
2024/01/18 04:00:42;;;;;;;4.17;3.10;;;4.50;99.90;;;6.39;66.71;94930.97;5073207;28;20045;-61
2024/01/18 04:03:09;;;;;;;4.30;3.60;;;4.40;99.90;;;6.42;67.14;94917.34;5073193;28;20047;-61
2024/01/18 04:05:40;;;;;;;4.80;3.90;;;4.40;99.90;;;6.40;66.89;94927.31;5073356;28;20060;-61
2024/01/18 04:08:07;;;;;;;4.80;3.60;;;4.40;99.90;;;6.39;67.10;94914.28;5064783;28;20048;-60
2024/01/18 04:10:35;;;;;;;5.03;4.07;;;4.40;99.90;;;6.38;66.41;94920.59;5072779;28;20048;-60
2024/01/18 04:13:03;;;;;;;6.17;3.83;;;4.30;99.90;;;6.36;66.21;94910.25;5072914;28;20071;-61
2024/01/18 04:15:31;;;;;;;4.43;3.80;;;4.30;99.90;;;6.41;66.22;94917.53;5073234;28;20045;-60
2024/01/18 04:17:58;;;;;;;5.20;4.53;;;4.40;99.90;;;6.37;66.45;94925.06;5073131;28;20051;-61
2024/01/18 04:20:28;;;;;;;4.73;4.20;;;4.30;99.90;;;6.39;66.63;94920.38;5072144;28;20052;-61
2024/01/18 04:22:56;;;;;;;5.53;3.90;;;4.30;99.90;;;6.35;66.82;94919.16;5072011;28;20040;-60
2024/01/18 04:25:24;;;;;;;4.97;3.80;;;4.30;99.90;;;6.31;66.90;94912.66;5072491;28;20059;-60
2024/01/18 04:27:51;;;;;;;5.73;3.80;;;4.30;99.90;;;6.29;66.09;94904.13;5053710;28;20057;-60
2024/01/18 04:30:19;;;;;;;5.13;3.50;;;4.20;99.90;;;6.30;66.41;94903.94;5072873;28;20063;-60
2024/01/18 04:32:47;;;;;;;4.70;4.20;;;4.20;99.90;;;6.31;66.29;94902.91;5072579;28;20047;-60
2024/01/18 04:35:14;;;;;;;5.40;4.10;;;4.30;99.90;;;6.30;66.41;94911.84;5072920;28;20033;-60
2024/01/18 04:37:42;;;;;;;4.40;3.80;;;4.20;99.90;;;6.30;66.87;94908.38;5071955;28;20115;-60
2024/01/18 04:40:10;;;;;;;5.43;4.30;;;4.20;99.90;;;6.33;66.90;94904.53;5071683;28;20041;-59
2024/01/18 04:42:38;;;;;;;4.93;3.80;;;4.30;99.90;;;6.38;66.60;94912.66;5072548;28;20495;-59
2024/01/18 04:45:07;;;;;;;6.13;4.50;;;4.30;99.90;;;6.42;66.75;94917.34;5072495;28;20049;-60
2024/01/18 04:47:34;;;;;;;4.77;3.73;;;4.40;99.90;;;6.39;66.72;94912.47;5072810;28;20056;-60
2024/01/18 04:50:03;;;;;;;5.20;3.70;;;4.30;99.90;;;6.42;66.25;94913.91;5072733;28;20056;-60
2024/01/18 04:52:32;;;;;;;5.20;3.73;;;4.30;99.90;;;6.44;66.16;94914.50;5072469;28;20060;-60
2024/01/18 04:55:04;;;;;;;5.33;3.93;;;4.40;99.90;;;6.43;66.40;94923.44;5072146;28;20044;-59
2024/01/18 04:57:35;;;;;;;4.90;3.53;;;4.40;99.90;;;6.37;66.39;94921.63;5072469;28;20546;-60
2024/01/18 05:00:09;;;;;;;3.77;3.23;;;4.30;99.90;;;6.28;66.12;94923.63;5072466;28;20045;-60
2024/01/18 05:02:42;;;;;;;4.57;3.60;;;4.20;99.90;;;6.02;66.49;94917.28;5071310;28;20051;-60
2024/01/18 05:05:10;;;;;;;5.17;3.40;;;4.00;99.90;;;6.05;66.85;94922.16;5072669;28;20044;-60
2024/01/18 05:07:40;;;;;;;16.43;8.03;;;4.00;99.90;;;6.05;66.46;94926.66;5072435;28;20419;-60
2024/01/18 05:10:10;;;;;;;14.90;5.50;;;4.00;99.90;;;5.96;66.32;94922.56;5072300;28;20051;-60
2024/01/18 05:12:38;;;;;;;7.50;3.20;;;3.90;99.90;;;5.99;66.64;94932.69;5072361;28;20547;-60
2024/01/18 05:15:07;;;;;;;3.47;2.70;;;3.80;99.90;;;5.85;66.15;94939.72;5071919;28;20044;-60
2024/01/18 05:17:37;;;;;;;4.90;3.07;;;3.70;99.90;;;5.79;66.53;94943.97;5072227;28;20044;-60
2024/01/18 05:20:06;;;;;;;3.70;3.10;;;3.60;99.90;;;5.72;66.34;94943.97;5070784;28;20212;-60
2024/01/18 05:22:35;;;;;;;8.47;3.20;;;3.60;99.90;;;5.56;66.31;94946.91;5070861;28;20052;-60
2024/01/18 05:25:03;;;;;;;4.97;3.30;;;3.40;99.90;;;5.49;66.85;94946.09;5071628;28;20106;-60
2024/01/18 05:27:31;;;;;;;32.60;5.63;;;3.40;99.90;;;5.29;66.61;94953.88;5071922;28;20052;-60
2024/01/18 05:29:59;;;;;;;68.63;10.93;;;3.20;99.90;;;5.04;67.14;94964.91;5072014;28;20055;-60
2024/01/18 05:32:27;;;;;;;48.13;7.03;;;3.10;99.90;;;5.02;67.09;94966.91;5069616;28;20059;-60
2024/01/18 05:34:54;;;;;;;15.73;3.30;;;3.00;99.90;;;5.01;67.36;94978.47;5071473;28;20055;-61
2024/01/18 05:37:22;;;;;;;4.10;2.30;;;3.00;99.90;;;4.76;66.95;94964.88;5071809;28;20051;-61
2024/01/18 05:39:50;;;;;;;5.00;3.10;;;2.80;99.90;;;4.63;67.37;94993.75;5071693;28;20419;-61
2024/01/18 05:42:18;;;;;;;4.20;3.20;;;2.70;99.90;;;4.56;67.84;94990.25;5063648;28;20049;-60
2024/01/18 05:44:48;;;;;;;2.17;1.73;;;2.60;99.90;;;4.42;67.30;94995.41;5071621;28;20040;-61
2024/01/18 05:47:16;;;;;;;3.27;2.07;;;2.50;99.90;;;4.16;68.01;94976.69;5071538;28;20048;-61
2024/01/18 05:49:43;;;;;;;4.87;2.60;;;2.30;99.90;;;4.14;67.64;94996.09;5071212;28;20048;-61
2024/01/18 05:52:11;;;;;;;5.63;2.97;;;2.20;99.90;;;4.18;67.52;94974.69;5071171;28;20064;-61
2024/01/18 05:54:39;;;;;;;8.73;3.40;;;2.30;99.90;;;4.16;68.53;94980.13;5071563;28;20499;-61
2024/01/18 05:57:07;;;;;;;5.43;3.03;;;2.20;99.90;;;4.11;68.01;94990.41;5071337;28;20044;-61
2024/01/18 05:59:35;;;;;;;6.43;3.13;;;2.20;99.90;;;4.01;68.21;94987.25;5071498;28;20048;-61
2024/01/18 06:02:03;;;;;;;5.63;2.73;;;2.10;99.90;;;3.87;68.09;94988.91;5070945;28;20055;-62
2024/01/18 06:04:30;;;;;;;6.63;3.47;;;2.00;99.90;;;3.90;68.66;94992.00;5069651;28;20071;-62
2024/01/18 06:06:59;;;;;;;5.00;3.53;;;2.00;99.90;;;3.97;68.15;94988.63;5069584;28;20063;-62
2024/01/18 06:09:26;;;;;;;5.27;3.73;;;2.00;99.90;;;3.99;68.08;94987.44;5071182;28;20048;-61
2024/01/18 06:11:54;;;;;;;4.80;3.10;;;2.10;99.90;;;4.06;67.75;94980.44;5070619;28;20051;-62
2024/01/18 06:14:22;;;;;;;4.37;3.27;;;2.10;99.90;;;4.12;67.40;94984.13;5071195;28;20056;-61
2024/01/18 06:16:49;;;;;;;4.97;3.23;;;2.10;99.90;;;4.10;67.16;94983.50;5071184;28;20043;-61
2024/01/18 06:19:17;;;;;;;5.53;4.17;;;2.10;99.90;;;4.04;66.94;94981.63;5071176;28;20044;-61
2024/01/18 06:21:45;;;;;;;5.10;3.40;;;2.10;99.90;;;4.08;66.76;94983.69;5052692;28;20059;-62
2024/01/18 06:24:13;;;;;;;6.10;3.00;;;2.10;99.90;;;4.17;67.54;94984.41;5071540;28;20048;-61
2024/01/18 06:26:41;;;;;;;4.20;3.00;;;2.20;99.90;;;3.96;67.03;94971.22;5070233;28;20048;-61
2024/01/18 06:29:10;;;;;;;4.10;3.40;;;1.90;99.90;;;3.90;67.11;94976.22;5071065;28;20052;-61
2024/01/18 06:31:38;;;;;;;4.77;3.40;;;1.90;99.90;;;3.86;66.63;94971.50;5070176;28;20424;-61
2024/01/18 06:34:05;;;;;;;3.77;2.90;;;1.90;99.90;;;3.97;67.13;94972.84;5070394;28;20040;-61
2024/01/18 06:36:33;;;;;;;6.80;3.30;;;1.90;99.90;;;4.06;66.74;94963.81;5070983;28;20041;-61
2024/01/18 06:39:01;;;;;;;3.70;2.87;;;2.00;99.90;;;3.98;67.11;94980.53;5069705;28;20044;-63
2024/01/18 06:41:29;;;;;;;4.77;3.30;;;2.00;99.90;;;4.05;66.91;94977.97;5070571;28;20427;-62
2024/01/18 06:43:57;;;;;;;5.70;3.67;;;2.00;99.90;;;4.08;66.60;94972.34;5069541;28;20040;-67
2024/01/18 06:46:24;;;;;;;5.17;3.47;;;2.00;99.90;;;4.02;66.59;94976.53;5071073;28;20528;-66
2024/01/18 06:48:57;;;;;;;5.83;3.87;;;2.00;99.90;;;3.91;67.22;94964.66;5070893;28;20051;-67
2024/01/18 06:51:24;;;;;;;6.00;3.57;;;1.90;99.90;;;3.88;66.86;94966.88;5062623;28;20388;-67
2024/01/18 06:53:52;;;;;;;5.23;3.30;;;1.80;99.90;;;3.91;66.71;94972.56;5070725;28;20051;-63
2024/01/18 06:56:19;;;;;;;4.70;3.47;;;1.80;99.90;;;3.92;66.96;94960.22;5069385;28;20052;-65
2024/01/18 06:58:47;;;;;;;6.93;5.10;;;1.80;99.90;;;4.06;66.74;94963.81;5070880;28;20044;-66
2024/01/18 07:01:15;;;;;;;6.73;4.63;;;2.00;99.90;;;4.17;66.89;94960.72;5068720;28;20044;-66
2024/01/18 07:03:42;;;;;;;9.17;4.57;;;2.10;99.90;;;4.25;66.75;94955.31;5070322;28;20415;-67
2024/01/18 07:06:11;;;;;;;6.93;4.23;;;2.20;99.90;;;4.34;66.35;94958.63;5068925;28;20393;-66
2024/01/18 07:08:39;;;;;;;5.77;3.40;;;2.30;99.90;;;4.39;66.31;94961.53;5070652;28;20107;-66
2024/01/18 07:11:07;;;;;;;4.90;3.37;;;2.30;99.90;;;4.37;66.89;94957.44;5070601;28;20040;-68
2024/01/18 07:13:34;;;;;;;4.50;3.33;;;2.30;99.90;;;4.37;65.65;94962.72;5069096;28;20045;-64
2024/01/18 07:16:02;;;;;;;5.63;3.93;;;2.20;99.90;;;4.32;66.44;94972.00;5070513;28;20048;-67
2024/01/18 07:18:30;;;;;;;5.40;3.53;;;2.30;99.90;;;4.30;66.04;94967.91;5070617;28;20040;-66
2024/01/18 07:20:57;;;;;;;5.50;3.10;;;2.20;99.90;;;4.29;65.53;94972.38;5070487;28;20052;-66
2024/01/18 07:23:25;;;;;;;4.20;3.17;;;2.20;99.90;;;4.27;65.97;94965.66;5070330;28;20048;-64
2024/01/18 07:25:53;;;;;;;4.43;3.47;;;2.10;99.90;;;4.24;66.20;94972.09;5070279;28;20051;-68
2024/01/18 07:28:21;;;;;;;4.90;3.27;;;2.10;99.90;;;4.27;66.27;94961.22;5068266;28;20047;-66
2024/01/18 07:30:49;;;;;;;4.77;3.80;;;2.20;99.90;;;4.22;66.15;94962.78;5070647;28;20051;-66
2024/01/18 07:33:16;;;;;;;5.17;3.20;;;2.10;99.90;;;4.23;66.61;94952.06;5070114;28;20048;-69
2024/01/18 07:35:44;;;;;;;5.93;3.73;;;2.10;99.90;;;4.24;65.84;94958.94;5069514;28;20040;-68
2024/01/18 07:38:13;;;;;;;4.73;3.30;;;2.10;99.90;;;4.27;66.70;94960.41;5070137;28;20501;-70
2024/01/18 07:40:41;;;;;;;4.90;3.10;;;2.20;99.90;;;4.29;65.94;94959.19;5070474;28;20048;-70
2024/01/18 07:43:09;;;;;;;13.63;6.40;;;2.20;99.90;;;4.12;66.30;94969.16;5068041;28;20044;-65
2024/01/18 07:45:36;;;;;;;6.87;4.10;;;2.10;99.90;;;4.18;65.76;94967.59;5077417;28;20051;-65
2024/01/18 07:48:05;;;;;;;6.63;3.93;;;2.10;99.90;;;4.21;66.69;94967.22;5084646;28;20044;-61
2024/01/18 07:50:33;;;;;;;6.43;3.97;;;2.10;99.90;;;4.22;66.23;94975.94;5074008;28;20037;-60
2024/01/18 07:53:04;;;;;;;5.93;3.63;;;2.20;99.90;;;3.93;66.39;94981.09;5073533;28;20052;-61
2024/01/18 07:55:32;;;;;;;6.50;4.07;;;1.90;99.90;;;3.87;66.56;94983.66;5073872;28;20499;-60
2024/01/18 07:58:00;;;;;;;6.10;3.67;;;1.80;99.90;;;3.96;66.46;94990.44;5073732;28;20045;-60
2024/01/18 08:00:28;;;;;;;19.57;5.20;;;1.90;99.90;;;3.73;66.75;94988.75;5073733;28;20040;-59
2024/01/18 08:02:55;;;;;;;13.50;4.67;;;1.70;99.90;;;3.70;66.46;94996.19;5073198;28;20052;-61
2024/01/18 08:05:24;;;;;;;9.63;4.47;;;1.60;99.90;;;3.68;66.65;95014.81;5073357;28;20051;-59
2024/01/18 08:07:52;;;;;;;6.73;4.37;;;1.70;99.90;;;3.69;66.81;95005.09;5073381;28;20045;-60
2024/01/18 08:10:19;;;;;;;6.10;4.10;;;1.70;99.90;;;3.52;67.31;94991.31;5073293;28;20479;-62
2024/01/18 08:12:49;;;;;;;5.37;3.77;;;1.60;99.90;;;3.52;66.69;95007.09;5073218;28;20499;-62
2024/01/18 08:15:16;;;;;;;5.77;3.60;;;1.60;99.90;;;3.27;67.34;95001.28;5073398;28;20040;-63
2024/01/18 08:17:44;;;;;;;5.27;3.30;;;1.40;99.90;;;3.05;68.17;95010.88;5073481;28;20503;-63
2024/01/18 08:20:14;;;;;;;5.03;3.30;;;1.20;99.90;;;3.21;67.54;95010.72;5073142;28;20036;-62
2024/01/18 08:22:43;;;;;;;4.20;2.77;;;1.30;99.90;;;3.36;67.11;95008.09;5072047;28;20040;-62
2024/01/18 08:25:11;;;;;;;5.73;3.40;;;1.40;99.90;;;3.17;67.98;95012.06;5073149;28;20404;-62
2024/01/18 08:27:43;;;;;;;6.63;3.90;;;1.40;99.90;;;3.24;67.20;95027.94;5071451;28;20040;-62
2024/01/18 08:30:11;;;;;;;5.50;3.30;;;1.30;99.90;;;3.05;68.05;95026.66;5072170;28;20492;-62
2024/01/18 08:32:39;;;;;;;4.87;3.30;;;1.20;99.90;;;3.08;67.54;95024.50;5069582;28;20052;-62
2024/01/18 08:35:07;;;;;;;6.37;3.43;;;1.20;99.90;;;3.10;67.65;95043.53;5072690;28;20518;-63
2024/01/18 08:37:37;;;;;;;5.63;3.50;;;1.20;99.90;;;3.05;67.63;95037.16;5073033;28;20044;-62
2024/01/18 08:40:06;;;;;;;6.20;3.50;;;1.20;99.90;;;3.05;67.70;95031.91;5072449;28;20408;-62
2024/01/18 08:42:33;;;;;;;6.43;4.00;;;1.20;99.90;;;3.10;68.10;95027.75;5064015;28;20052;-62
2024/01/18 08:45:01;;;;;;;15.83;6.03;;;1.20;99.90;;;3.05;67.96;95040.59;5063439;28;20047;-62
2024/01/18 08:47:28;;;;;;;9.90;4.63;;;1.20;99.90;;;3.04;67.93;95038.97;5068677;28;20048;-62
2024/01/18 08:49:56;;;;;;;4.47;2.80;;;1.20;99.90;;;3.08;67.74;95056.03;5066858;28;20049;-63
2024/01/18 08:52:24;;;;;;;3.67;2.87;;;1.20;99.90;;;3.00;67.84;95071.84;5066006;28;20423;-62
2024/01/18 08:54:52;;;;;;;8.70;3.87;;;1.10;99.90;;;2.99;67.86;95072.88;5066996;28;20055;-63
2024/01/18 08:57:20;;;;;;;4.47;2.63;;;1.00;99.90;;;2.79;67.90;95092.72;5067880;28;20052;-62
2024/01/18 08:59:47;;;;;;;4.60;2.40;;;0.90;99.90;;;2.72;68.07;95067.16;5067593;28;20060;-62
2024/01/18 09:02:15;;;;;;;2.73;1.80;;;0.90;99.90;;;2.58;68.48;95088.94;5067062;28;20028;-62
2024/01/18 09:04:51;;;;;;;4.77;2.40;;;0.80;99.90;;;2.60;68.43;95088.75;5067428;28;20055;-62
2024/01/18 09:07:19;;;;;;;3.87;2.17;;;0.80;99.90;;;2.69;68.51;95106.09;5064373;28;20052;-62
2024/01/18 09:09:48;;;;;;;2.87;2.27;;;0.80;99.90;;;2.51;68.66;95098.50;5063200;28;20507;-63
2024/01/18 09:12:16;;;;;;;2.77;2.37;;;0.80;99.90;;;2.52;69.00;95111.47;5064394;28;20164;-62
2024/01/18 09:14:44;;;;;;;3.90;2.63;;;0.80;99.90;;;2.67;68.68;95102.81;5065376;28;20044;-62
2024/01/18 09:17:12;;;;;;;2.43;2.00;;;0.90;99.90;;;2.57;68.86;95110.94;5066921;28;20051;-63
2024/01/18 09:19:41;;;;;;;3.17;2.60;;;0.80;99.90;;;2.58;68.62;95127.50;5067176;28;20047;-62
2024/01/18 09:22:09;;;;;;;9.97;6.03;;;0.80;99.90;;;2.72;68.57;95130.22;5062281;28;20040;-63
2024/01/18 09:24:37;;;;;;;4.53;3.47;;;0.80;99.90;;;2.71;68.28;95133.00;5064907;28;20048;-63
2024/01/18 09:27:05;;;;;;;5.30;3.40;;;0.90;99.90;;;2.80;68.27;95134.59;5064711;28;20059;-63
2024/01/18 09:29:33;;;;;;;4.77;3.33;;;1.00;99.90;;;2.89;68.29;95133.56;5066821;28;20059;-63
2024/01/18 09:32:00;;;;;;;3.50;2.50;;;1.00;99.90;;;2.94;68.32;95146.97;5061673;28;20056;-64
2024/01/18 09:34:28;;;;;;;3.60;2.50;;;1.10;99.90;;;2.68;68.29;95149.94;5066364;28;20500;-63
2024/01/18 09:36:57;;;;;;;5.33;2.80;;;0.90;99.90;;;2.82;68.29;95145.75;5065308;28;20496;-63
2024/01/18 09:39:25;;;;;;;4.30;2.70;;;1.00;99.90;;;2.81;68.42;95152.00;5060706;28;20052;-63
2024/01/18 09:41:54;;;;;;;6.20;2.50;;;1.00;99.90;;;2.90;68.27;95161.44;5061478;28;20045;-63
2024/01/18 09:44:30;;;;;;;3.83;2.23;;;1.00;99.90;;;2.94;67.97;95175.06;5062785;28;20048;-63
2024/01/18 09:47:01;;;;;;;4.30;2.30;;;1.10;99.90;;;3.04;67.66;95173.03;5071583;28;20055;-64
2024/01/18 09:49:32;;;;;;;3.17;2.20;;;1.20;99.90;;;3.02;68.02;95184.72;5070020;28;20056;-63
2024/01/18 09:52:00;;;;;;;4.00;2.03;;;1.10;99.90;;;2.98;68.10;95197.38;5069389;28;20052;-63
2024/01/18 09:54:29;;;;;;;3.00;2.20;;;1.10;99.90;;;2.65;68.57;95197.56;5063168;28;20071;-63
2024/01/18 09:57:00;;;;;;;3.00;2.07;;;0.80;99.90;;;2.47;68.96;95216.19;5071339;28;20036;-63
2024/01/18 09:59:28;;;;;;;4.63;2.73;;;0.70;99.90;;;2.40;68.89;95224.94;5070518;28;20037;-63
2024/01/18 10:01:56;;;;;;;4.63;2.63;;;0.70;99.90;;;2.41;69.49;95247.59;5069969;28;20583;-63
2024/01/18 10:04:27;;;;;;;3.27;2.00;;;0.70;99.90;;;2.16;69.48;95256.34;5071222;28;20051;-62
2024/01/18 10:06:56;;;;;;;2.50;1.70;;;0.60;99.90;;;2.03;70.29;95273.59;5071042;28;20040;-63
2024/01/18 10:09:26;;;;;;;4.27;2.50;;;0.50;99.90;;;2.13;69.69;95261.94;5070250;28;20055;-66
2024/01/18 10:11:54;;;;;;;3.73;2.50;;;0.60;99.90;;;2.07;70.15;95261.75;5069588;28;20071;-66
2024/01/18 10:14:42;;;;;;;3.23;2.20;;;0.60;99.90;;;2.00;70.53;95280.00;5070705;28;20048;-65
2024/01/18 10:17:21;;;;;;;3.67;2.10;;;0.50;99.90;;;2.03;70.62;95286.72;5069848;28;20056;-65
2024/01/18 10:19:51;;;;;;;5.47;3.00;;;0.50;99.90;;;2.06;70.60;95263.56;5071268;28;20045;-64
2024/01/18 10:22:21;;;;;;;2.87;2.23;;;0.50;99.90;;;1.89;70.64;95273.28;5070577;28;20071;-64
2024/01/18 10:24:49;;;;;;;3.50;2.37;;;0.40;99.90;;;2.08;71.07;95285.22;5070663;28;20067;-64
2024/01/18 10:27:21;;;;;;;3.53;2.80;;;0.60;99.90;;;1.90;70.56;95280.16;5070901;28;20044;-64
2024/01/18 10:29:50;;;;;;;2.53;2.23;;;0.40;99.90;;;1.79;71.50;95282.31;5067981;28;20131;-64
2024/01/18 10:32:17;;;;;;;5.10;2.80;;;0.30;99.90;;;1.78;71.45;95302.47;5070639;28;20056;-64
2024/01/18 10:34:46;;;;;;;4.53;3.20;;;0.30;99.90;;;1.90;70.66;95300.31;5070681;28;20036;-64